createdAt,value
2022-10-11T00:00:41.131Z,14.92
2022-10-11T00:03:09.585Z,14.93
2022-10-11T00:05:37.746Z,14.95
2022-10-11T00:08:25.973Z,14.95
2022-10-11T00:10:58.591Z,14.95
2022-10-11T00:13:27.027Z,14.98
2022-10-11T00:15:57.230Z,14.99
2022-10-11T00:18:25.451Z,15.00
2022-10-11T00:21:02.138Z,14.97
2022-10-11T00:23:30.250Z,14.98
2022-10-11T00:25:59.886Z,14.94
2022-10-11T00:28:28.255Z,14.95
2022-10-11T00:30:57.996Z,14.93
2022-10-11T00:33:26.028Z,14.87
2022-10-11T00:35:54.026Z,14.82
2022-10-11T00:38:21.972Z,14.82
2022-10-11T00:40:50.059Z,14.81
2022-10-11T00:43:19.526Z,14.81
2022-10-11T00:46:25.620Z,14.78
2022-10-11T00:48:58.354Z,14.79
2022-10-11T00:51:37.257Z,14.72
2022-10-11T00:54:07.144Z,14.71
2022-10-11T00:56:38.935Z,14.73
2022-10-11T00:59:13.595Z,14.70
2022-10-11T01:01:43.102Z,14.68
2022-10-11T01:04:11.223Z,14.68
2022-10-11T01:06:39.587Z,14.72
2022-10-11T01:09:08.159Z,14.69
2022-10-11T01:11:39.038Z,14.69
2022-10-11T01:14:28.999Z,14.66
2022-10-11T01:17:04.920Z,14.66
2022-10-11T01:19:52.356Z,14.64
2022-10-11T01:22:36.822Z,14.66
2022-10-11T01:25:25.328Z,14.66
2022-10-11T01:28:08.622Z,14.63
2022-10-11T01:30:39.300Z,14.64
2022-10-11T01:33:18.347Z,14.64
2022-10-11T01:35:50.385Z,14.63
2022-10-11T01:38:22.620Z,14.61
2022-10-11T01:40:53.608Z,14.55
2022-10-11T01:43:23.881Z,14.52
2022-10-11T01:45:55.687Z,14.48
2022-10-11T01:48:23.745Z,14.50
2022-10-11T01:50:55.325Z,14.50
2022-10-11T01:53:45.244Z,14.48
2022-10-11T01:56:26.792Z,14.44
2022-10-11T01:59:07.400Z,14.42
2022-10-11T02:01:49.105Z,14.41
2022-10-11T02:04:22.188Z,14.46
2022-10-11T02:06:57.888Z,14.46
2022-10-11T02:09:34.836Z,14.44
2022-10-11T02:12:08.447Z,14.48
2022-10-11T02:14:40.544Z,14.46
2022-10-11T02:17:13.845Z,14.42
2022-10-11T02:19:46.026Z,14.39
2022-10-11T02:22:19.371Z,14.39
2022-10-11T02:24:51.602Z,14.38
2022-10-11T02:27:23.539Z,14.40
2022-10-11T02:29:54.492Z,14.39
2022-10-11T02:32:26.489Z,14.37
2022-10-11T02:34:57.152Z,14.36
2022-10-11T02:37:31.796Z,14.33
2022-10-11T02:40:07.768Z,14.31
2022-10-11T02:42:42.956Z,14.30
2022-10-11T02:45:18.018Z,14.34
2022-10-11T02:47:48.848Z,14.33
2022-10-11T02:50:17.221Z,14.33
2022-10-11T02:52:45.299Z,14.35
2022-10-11T02:55:13.496Z,14.33
2022-10-11T02:57:41.515Z,14.34
2022-10-11T03:00:10.591Z,14.33
2022-10-11T03:02:38.524Z,14.32
2022-10-11T03:05:08.421Z,14.29
2022-10-11T03:07:36.440Z,14.27
2022-10-11T03:10:04.996Z,14.24
2022-10-11T03:12:33.241Z,14.24
2022-10-11T03:15:01.322Z,14.23
2022-10-11T03:17:36.551Z,14.21
2022-10-11T03:20:07.816Z,14.16
2022-10-11T03:22:35.843Z,14.15
2022-10-11T03:25:04.907Z,14.16
2022-10-11T03:27:33.800Z,14.15
2022-10-11T03:30:02.055Z,14.16
2022-10-11T03:32:30.442Z,14.13
2022-10-11T03:34:58.640Z,14.13
2022-10-11T03:37:28.147Z,14.10
2022-10-11T03:39:56.191Z,14.10
2022-10-11T03:42:24.204Z,14.10
2022-10-11T03:44:52.172Z,14.10
2022-10-11T03:47:20.508Z,14.08
2022-10-11T03:49:48.502Z,14.05
2022-10-11T03:52:16.550Z,14.02
2022-10-11T03:54:46.002Z,14.03
2022-10-11T03:57:14.024Z,14.01
2022-10-11T03:59:41.965Z,13.97
2022-10-11T04:02:10.080Z,14.01
2022-10-11T04:04:38.645Z,13.96
2022-10-11T04:07:06.839Z,13.94
2022-10-11T04:09:35.135Z,13.94
2022-10-11T04:12:05.154Z,13.91
2022-10-11T04:14:33.124Z,13.91
2022-10-11T04:17:01.087Z,13.91
2022-10-11T04:19:29.846Z,13.93
2022-10-11T04:21:57.816Z,13.91
2022-10-11T04:24:25.795Z,13.90
2022-10-11T04:26:53.737Z,13.89
2022-10-11T04:29:23.146Z,13.86
2022-10-11T04:31:51.248Z,13.85
2022-10-11T04:34:19.589Z,13.83
2022-10-11T04:36:50.066Z,13.78
2022-10-11T04:39:18.502Z,13.78
2022-10-11T04:41:46.451Z,13.82
2022-10-11T04:44:14.479Z,13.79
2022-10-11T04:46:43.842Z,13.79
2022-10-11T04:49:11.767Z,13.80
2022-10-11T04:51:40.113Z,13.78
2022-10-11T04:54:08.070Z,13.77
2022-10-11T04:56:36.045Z,13.77
2022-10-11T04:59:04.079Z,13.76
2022-10-11T05:01:32.024Z,13.76
2022-10-11T05:04:01.394Z,13.70
2022-10-11T05:06:29.421Z,13.67
2022-10-11T05:08:57.453Z,13.69
2022-10-11T05:11:25.529Z,13.67
2022-10-11T05:13:53.537Z,13.67
2022-10-11T05:16:21.498Z,13.64
2022-10-11T05:18:49.544Z,13.66
2022-10-11T05:21:21.364Z,13.66
2022-10-11T05:23:51.117Z,13.63
2022-10-11T05:26:19.272Z,13.61
2022-10-11T05:28:48.077Z,13.64
2022-10-11T05:31:16.574Z,13.66
2022-10-11T05:33:44.882Z,13.62
2022-10-11T05:36:13.521Z,13.59
2022-10-11T05:38:43.014Z,13.53
2022-10-11T05:41:14.860Z,13.50
2022-10-11T05:43:44.558Z,13.51
2022-10-11T05:46:15.820Z,13.45
2022-10-11T05:48:44.099Z,13.47
2022-10-11T05:51:13.042Z,13.52
2022-10-11T05:53:42.591Z,13.53
2022-10-11T05:56:20.537Z,13.52
2022-10-11T05:58:48.802Z,13.53
2022-10-11T06:01:22.038Z,13.50
2022-10-11T06:03:50.453Z,13.51
2022-10-11T06:06:18.904Z,13.52
2022-10-11T06:08:48.918Z,13.53
2022-10-11T06:11:18.839Z,13.53
2022-10-11T06:13:46.893Z,13.52
2022-10-11T06:16:14.828Z,13.51
2022-10-11T06:18:42.862Z,13.53
2022-10-11T06:21:10.978Z,13.56
2022-10-11T06:23:38.971Z,13.56
2022-10-11T06:26:09.981Z,13.57
2022-10-11T06:28:38.867Z,13.61
2022-10-11T06:31:07.804Z,13.61
2022-10-11T06:33:36.218Z,13.67
2022-10-11T06:36:07.645Z,13.71
2022-10-11T06:38:37.281Z,13.74
2022-10-11T06:41:18.010Z,13.78
2022-10-11T06:43:46.787Z,13.82
2022-10-11T06:46:14.736Z,13.86
2022-10-11T06:48:44.542Z,13.90
2022-10-11T06:51:13.168Z,13.90
2022-10-11T06:53:41.260Z,13.92
2022-10-11T06:56:11.895Z,13.92
2022-10-11T06:58:41.809Z,13.83
2022-10-11T07:01:12.952Z,13.87
2022-10-11T07:03:40.990Z,13.90
2022-10-11T07:06:11.236Z,14.01
2022-10-11T07:08:40.523Z,14.10
2022-10-11T07:11:10.255Z,14.13
2022-10-11T07:13:38.871Z,14.12
2022-10-11T07:16:11.081Z,14.18
2022-10-11T07:18:39.142Z,14.32
2022-10-11T07:21:08.805Z,14.47
2022-10-11T07:23:36.754Z,14.56
2022-10-11T07:26:05.639Z,14.64
2022-10-11T07:28:35.014Z,14.68
2022-10-11T07:31:06.216Z,14.73
2022-10-11T07:33:35.811Z,14.76
2022-10-11T07:36:05.721Z,14.74
2022-10-11T07:38:34.341Z,14.76
2022-10-11T07:41:06.866Z,14.75
2022-10-11T07:43:34.837Z,14.70
2022-10-11T07:46:04.586Z,14.57
2022-10-11T07:48:34.233Z,14.41
2022-10-11T07:51:08.893Z,14.36
2022-10-11T07:53:41.318Z,14.43
2022-10-11T07:56:10.507Z,14.51
2022-10-11T07:58:38.471Z,14.52
2022-10-11T08:01:07.048Z,14.55
2022-10-11T08:03:35.163Z,14.59
2022-10-11T08:06:04.422Z,14.68
2022-10-11T08:08:33.991Z,14.84
2022-10-11T08:11:02.118Z,14.91
2022-10-11T08:13:30.087Z,14.90
2022-10-11T08:15:58.190Z,14.93
2022-10-11T08:18:26.518Z,14.96
2022-10-11T08:20:54.525Z,15.09
2022-10-11T08:23:22.490Z,15.13
2022-10-11T08:25:58.059Z,15.10
2022-10-11T08:28:26.068Z,15.09
2022-10-11T08:30:55.744Z,15.13
2022-10-11T08:33:24.928Z,15.09
2022-10-11T08:35:54.147Z,15.05
2022-10-11T08:38:22.610Z,15.07
2022-10-11T08:40:55.244Z,15.12
2022-10-11T08:43:34.047Z,15.17
2022-10-11T08:46:04.258Z,15.23
2022-10-11T08:48:36.864Z,15.25
2022-10-11T08:51:14.753Z,15.24
2022-10-11T08:53:48.982Z,15.31
2022-10-11T08:56:19.447Z,15.36
2022-10-11T08:58:53.715Z,15.32
2022-10-11T09:01:24.589Z,15.39
2022-10-11T09:03:53.709Z,15.49
2022-10-11T09:06:33.380Z,15.65
2022-10-11T09:09:19.535Z,15.75
2022-10-11T09:12:01.490Z,15.79
2022-10-11T09:14:53.274Z,15.80
2022-10-11T09:17:34.850Z,15.74
2022-10-11T09:20:28.435Z,15.77
2022-10-11T09:23:03.903Z,15.95
2022-10-11T09:25:35.872Z,16.05
2022-10-11T09:28:18.830Z,16.12
2022-10-11T09:30:51.764Z,16.11
2022-10-11T09:33:22.085Z,16.14
2022-10-11T09:35:52.304Z,16.19
2022-10-11T09:38:29.083Z,16.23
2022-10-11T09:41:07.132Z,16.23
2022-10-11T09:43:36.690Z,16.30
2022-10-11T09:46:05.341Z,16.38
2022-10-11T09:48:40.476Z,16.51
2022-10-11T09:51:16.276Z,16.56
2022-10-11T09:53:53.450Z,16.57
2022-10-11T09:56:22.596Z,16.60
2022-10-11T09:59:08.274Z,16.63
2022-10-11T10:01:36.757Z,16.74
2022-10-11T10:04:08.074Z,16.68
2022-10-11T10:06:36.758Z,16.67
2022-10-11T10:09:27.079Z,16.76
2022-10-11T10:11:55.889Z,16.75
2022-10-11T10:14:28.220Z,16.77
2022-10-11T10:17:02.845Z,16.77
2022-10-11T10:19:35.773Z,16.82
2022-10-11T10:22:03.770Z,16.87
2022-10-11T10:24:39.260Z,16.85
2022-10-11T10:27:20.906Z,16.90
2022-10-11T10:30:14.412Z,16.84
2022-10-11T10:32:50.033Z,16.85
2022-10-11T10:35:28.425Z,16.85
2022-10-11T10:38:06.523Z,16.80
2022-10-11T10:40:40.684Z,16.85
2022-10-11T10:43:15.773Z,16.85
2022-10-11T10:46:17.945Z,17.02
2022-10-11T10:49:28.789Z,17.14
2022-10-11T10:52:03.167Z,17.21
2022-10-11T10:54:41.893Z,17.22
2022-10-11T10:57:18.411Z,17.34
2022-10-11T10:59:56.156Z,17.50
2022-10-11T11:02:41.031Z,17.61
2022-10-11T11:05:21.128Z,17.83
2022-10-11T11:07:54.513Z,17.84
2022-10-11T11:10:25.701Z,17.83
2022-10-11T11:13:08.614Z,17.90
2022-10-11T11:15:42.078Z,18.07
2022-10-11T11:18:28.612Z,18.18
2022-10-11T11:21:11.428Z,18.21
2022-10-11T11:23:47.587Z,18.18
2022-10-11T11:26:24.664Z,18.31
2022-10-11T11:29:04.610Z,18.40
2022-10-11T11:31:46.204Z,18.44
2022-10-11T11:34:23.232Z,18.56
2022-10-11T11:36:56.689Z,18.72
2022-10-11T11:39:27.117Z,18.75
2022-10-11T11:42:00.416Z,18.67
2022-10-11T11:44:32.970Z,18.76
2022-10-11T11:47:04.357Z,18.77
2022-10-11T11:49:39.301Z,18.74
2022-10-11T11:52:12.911Z,18.72
2022-10-11T11:54:52.153Z,18.60
2022-10-11T11:57:30.810Z,18.64
2022-10-11T12:00:05.361Z,18.76
2022-10-11T12:02:45.833Z,18.91
2022-10-11T12:05:18.203Z,18.98
2022-10-11T12:08:06.028Z,18.98
2022-10-11T12:10:39.966Z,19.05
2022-10-11T12:13:20.771Z,19.10
2022-10-11T12:16:10.982Z,19.08
2022-10-11T12:18:50.950Z,19.04
2022-10-11T12:21:27.465Z,19.14
2022-10-11T12:23:56.680Z,19.22
2022-10-11T12:26:43.472Z,19.32
2022-10-11T12:29:45.065Z,19.39
2022-10-11T12:32:49.495Z,19.39
2022-10-11T12:36:08.247Z,19.43
2022-10-11T12:38:40.231Z,19.48
2022-10-11T12:41:50.462Z,19.53
2022-10-11T12:44:23.865Z,19.59
2022-10-11T12:47:29.755Z,19.70
2022-10-11T12:50:13.088Z,19.76
2022-10-11T12:52:51.487Z,19.78
2022-10-11T12:55:43.292Z,19.80
2022-10-11T12:58:38.538Z,19.80
2022-10-11T13:01:22.052Z,19.94
2022-10-11T13:03:58.604Z,20.05
2022-10-11T13:06:30.186Z,20.23
2022-10-11T13:09:04.737Z,20.27
2022-10-11T13:11:36.814Z,20.24
2022-10-11T13:14:11.105Z,20.37
2022-10-11T13:17:05.412Z,20.40
2022-10-11T13:19:35.035Z,20.49
2022-10-11T13:22:06.559Z,20.50
2022-10-11T13:24:41.004Z,20.53
2022-10-11T13:27:19.779Z,20.54
2022-10-11T13:29:49.617Z,20.60
2022-10-11T13:32:23.774Z,20.49
2022-10-11T13:37:30.990Z,20.49
2022-10-11T13:39:59.833Z,20.57
2022-10-11T13:42:32.740Z,20.61
2022-10-11T13:45:01.616Z,20.60
2022-10-11T13:47:32.694Z,20.78
2022-10-11T13:50:12.013Z,20.93
2022-10-11T13:52:55.083Z,20.91
2022-10-11T13:55:33.640Z,20.85
2022-10-11T13:58:09.696Z,20.97
2022-10-11T14:00:39.270Z,20.82
2022-10-11T14:03:18.555Z,20.70
2022-10-11T14:05:54.898Z,20.44
2022-10-11T14:08:26.335Z,20.36
2022-10-11T14:10:57.885Z,20.31
2022-10-11T14:13:32.228Z,20.29
2022-10-11T14:16:02.154Z,20.21
2022-10-11T14:18:39.641Z,20.16
2022-10-11T14:21:31.656Z,20.13
2022-10-11T14:24:01.314Z,20.14
2022-10-11T14:26:34.892Z,20.04
2022-10-11T14:29:08.838Z,20.04
2022-10-11T14:31:41.768Z,20.01
2022-10-11T14:34:18.769Z,19.99
2022-10-11T14:36:47.059Z,19.97
2022-10-11T14:39:17.921Z,19.98
2022-10-11T14:41:46.546Z,19.93
2022-10-11T14:44:16.753Z,19.87
2022-10-11T14:46:45.972Z,19.92
2022-10-11T14:49:15.819Z,19.90
2022-10-11T14:51:45.346Z,19.84
2022-10-11T14:54:14.667Z,19.81
2022-10-11T14:56:42.911Z,19.78
2022-10-11T14:59:12.399Z,19.79
2022-10-11T15:01:42.397Z,19.67
2022-10-11T15:04:10.579Z,19.73
2022-10-11T15:06:40.964Z,19.70
2022-10-11T15:09:09.648Z,19.60
2022-10-11T15:11:38.154Z,19.60
2022-10-11T15:14:06.691Z,19.59
2022-10-11T15:16:35.387Z,19.62
2022-10-11T15:19:04.873Z,19.61
2022-10-11T15:21:33.348Z,19.54
2022-10-11T15:24:01.297Z,19.47
2022-10-11T15:26:30.568Z,19.31
2022-10-11T15:28:59.111Z,19.19
2022-10-11T15:31:27.229Z,19.14
2022-10-11T15:33:59.446Z,19.13
2022-10-11T15:36:29.629Z,19.13
2022-10-11T15:38:57.941Z,19.11
2022-10-11T15:41:26.010Z,19.05
2022-10-11T15:43:53.985Z,19.04
2022-10-11T15:46:23.484Z,19.00
2022-10-11T15:48:52.701Z,18.94
2022-10-11T15:51:20.851Z,18.89
2022-10-11T15:53:50.160Z,18.92
2022-10-11T15:56:19.852Z,18.94
2022-10-11T15:58:48.252Z,18.99
2022-10-11T16:01:19.183Z,19.01
2022-10-11T16:03:48.416Z,19.06
2022-10-11T16:06:17.196Z,19.09
2022-10-11T16:08:45.592Z,19.11
2022-10-11T16:11:15.294Z,19.03
2022-10-11T16:13:43.329Z,18.96
2022-10-11T16:16:12.749Z,18.89
2022-10-11T16:18:41.169Z,18.89
2022-10-11T16:21:11.219Z,18.84
2022-10-11T16:23:39.800Z,18.64
2022-10-11T16:26:10.446Z,18.56
2022-10-11T16:28:40.292Z,18.44
2022-10-11T16:31:09.429Z,18.38
2022-10-11T16:33:45.728Z,18.29
2022-10-11T16:36:36.064Z,18.32
2022-10-11T16:39:08.865Z,18.31
2022-10-11T16:41:37.099Z,18.21
2022-10-11T16:44:06.951Z,18.11
2022-10-11T16:46:35.780Z,18.13
2022-10-11T16:49:04.461Z,18.08
2022-10-11T16:51:32.485Z,18.07
2022-10-11T16:54:00.598Z,18.06
2022-10-11T16:56:28.590Z,18.03
2022-10-11T16:58:57.057Z,18.03
2022-10-11T17:01:26.864Z,17.98
2022-10-11T17:03:55.821Z,18.03
2022-10-11T17:06:25.405Z,18.00
2022-10-11T17:08:53.827Z,17.97
2022-10-11T17:11:22.644Z,18.02
2022-10-11T17:13:53.462Z,18.02
2022-10-11T17:16:22.554Z,18.01
2022-10-11T17:18:52.279Z,17.85
2022-10-11T17:21:22.124Z,17.79
2022-10-11T17:23:50.533Z,17.79
2022-10-11T17:26:21.133Z,17.78
2022-10-11T17:28:49.194Z,17.81
2022-10-11T17:31:18.100Z,17.82
2022-10-11T17:33:46.084Z,17.80
2022-10-11T17:36:18.514Z,17.74
2022-10-11T17:38:46.583Z,17.73
2022-10-11T17:41:14.631Z,17.72
2022-10-11T17:43:42.644Z,17.66
2022-10-11T17:46:13.800Z,17.64
2022-10-11T17:48:42.381Z,17.65
2022-10-11T17:51:12.300Z,17.65
2022-10-11T17:53:42.140Z,17.60
2022-10-11T17:56:12.065Z,17.54
2022-10-11T17:58:40.255Z,17.52
2022-10-11T18:01:11.958Z,17.45
2022-10-11T18:03:40.426Z,17.48
2022-10-11T18:06:10.443Z,17.51
2022-10-11T18:08:41.207Z,17.50
2022-10-11T18:11:14.003Z,17.45
2022-10-11T18:13:45.981Z,17.43
2022-10-11T18:16:15.024Z,17.44
2022-10-11T18:18:43.609Z,17.41
2022-10-11T18:21:12.556Z,17.40
2022-10-11T18:23:41.010Z,17.40
2022-10-11T18:26:16.367Z,17.39
2022-10-11T18:28:44.954Z,17.41
2022-10-11T18:31:15.806Z,17.39
2022-10-11T18:33:46.059Z,17.42
2022-10-11T18:36:15.603Z,17.42
2022-10-11T18:38:46.663Z,17.40
2022-10-11T18:41:18.831Z,17.30
2022-10-11T18:43:50.462Z,17.30
2022-10-11T18:46:18.649Z,17.30
2022-10-11T18:48:48.747Z,17.31
2022-10-11T18:51:19.423Z,17.26
2022-10-11T18:53:48.287Z,17.16
2022-10-11T18:56:20.949Z,17.06
2022-10-11T18:58:50.788Z,16.95
2022-10-11T19:01:21.263Z,16.93
2022-10-11T19:03:52.772Z,16.95
2022-10-11T19:06:23.395Z,16.92
2022-10-11T19:08:53.505Z,16.87
2022-10-11T19:11:25.337Z,16.91
2022-10-11T19:13:56.936Z,16.93
2022-10-11T19:16:25.759Z,16.93
2022-10-11T19:18:54.570Z,16.92
2022-10-11T19:21:23.332Z,16.92
2022-10-11T19:23:51.425Z,16.86
2022-10-11T19:26:21.184Z,16.64
2022-10-11T19:28:56.487Z,16.57
2022-10-11T19:31:25.010Z,16.48
2022-10-11T19:33:53.352Z,16.54
2022-10-11T19:36:21.500Z,16.54
2022-10-11T19:38:51.510Z,16.59
2022-10-11T19:41:20.976Z,16.61
2022-10-11T19:43:51.412Z,16.63
2022-10-11T19:46:44.396Z,16.62
2022-10-11T19:49:10.271Z,16.62
2022-10-11T19:51:38.305Z,16.60
2022-10-11T19:54:09.059Z,16.57
2022-10-11T19:56:37.664Z,16.57
2022-10-11T19:59:07.485Z,16.54
2022-10-11T20:01:37.363Z,16.52
2022-10-11T20:04:07.508Z,16.52
2022-10-11T20:06:38.751Z,16.52
2022-10-11T20:09:28.511Z,16.54
2022-10-11T20:11:55.668Z,16.46
2022-10-11T20:14:25.423Z,16.45
2022-10-11T20:16:53.374Z,16.43
2022-10-11T20:19:27.760Z,16.44
2022-10-11T20:21:57.390Z,16.43
2022-10-11T20:24:27.499Z,16.42
2022-10-11T20:26:55.609Z,16.41
2022-10-11T20:29:26.411Z,16.29
2022-10-11T20:31:56.285Z,16.00
2022-10-11T20:34:24.333Z,15.89
2022-10-11T20:36:52.278Z,15.98
2022-10-11T20:39:20.428Z,16.08
2022-10-11T20:41:48.518Z,16.14
2022-10-11T20:44:17.936Z,16.16
2022-10-11T20:46:47.310Z,16.19
2022-10-11T20:49:15.389Z,16.16
2022-10-11T20:51:43.875Z,16.15
2022-10-11T20:54:12.487Z,16.14
2022-10-11T20:56:41.768Z,16.20
2022-10-11T20:59:10.149Z,16.18
2022-10-11T21:01:40.471Z,16.18
2022-10-11T21:04:15.583Z,16.16
2022-10-11T21:06:43.617Z,16.16
2022-10-11T21:09:14.073Z,16.16
2022-10-11T21:11:44.540Z,16.11
2022-10-11T21:14:12.607Z,16.10
2022-10-11T21:16:40.655Z,16.14
2022-10-11T21:19:15.782Z,16.15
2022-10-11T21:21:46.405Z,16.12
2022-10-11T21:24:16.427Z,16.10
2022-10-11T21:26:44.405Z,16.09
2022-10-11T21:29:12.385Z,16.09
2022-10-11T21:31:40.872Z,16.10
2022-10-11T21:34:10.251Z,16.12
2022-10-11T21:36:38.189Z,16.12
2022-10-11T21:39:06.192Z,16.11
2022-10-11T21:41:34.193Z,15.97
2022-10-11T21:44:02.181Z,15.82
2022-10-11T21:49:21.428Z,15.87
2022-10-11T21:51:49.477Z,15.97
2022-10-11T21:54:17.793Z,16.02
2022-10-11T21:56:45.947Z,15.98
2022-10-11T21:59:14.074Z,15.95
2022-10-11T22:01:42.525Z,15.95
2022-10-11T22:04:10.990Z,15.94
2022-10-11T22:06:40.712Z,15.95
2022-10-11T22:09:09.547Z,15.94
2022-10-11T22:11:38.015Z,15.92
2022-10-11T22:14:06.165Z,15.90
2022-10-11T22:16:35.528Z,15.90
2022-10-11T22:19:03.571Z,15.91
2022-10-11T22:21:31.630Z,15.94
2022-10-11T22:24:01.165Z,15.92
2022-10-11T22:26:31.134Z,15.91
2022-10-11T22:29:00.481Z,15.92
2022-10-11T22:31:29.860Z,15.91
2022-10-11T22:33:59.198Z,15.85
2022-10-11T22:36:27.967Z,15.84
2022-10-11T22:38:55.935Z,15.85
2022-10-11T22:41:25.280Z,15.88
2022-10-11T22:43:53.360Z,15.86
2022-10-11T22:46:21.373Z,15.85
2022-10-11T22:48:49.319Z,15.84
2022-10-11T22:51:17.361Z,15.84
2022-10-11T22:53:45.417Z,15.83
2022-10-11T22:56:13.545Z,15.87
2022-10-11T22:58:42.989Z,15.90
2022-10-11T23:01:12.826Z,15.90
2022-10-11T23:03:41.003Z,15.89
2022-10-11T23:06:09.722Z,15.89
2022-10-11T23:08:37.734Z,15.91
2022-10-11T23:11:06.738Z,15.92
2022-10-11T23:13:35.066Z,15.93
2022-10-11T23:16:08.143Z,15.91
2022-10-11T23:18:36.372Z,15.92
2022-10-11T23:21:05.835Z,15.92
2022-10-11T23:23:34.501Z,15.91
2022-10-11T23:26:07.531Z,15.89
2022-10-11T23:28:36.122Z,15.89
2022-10-11T23:31:09.760Z,15.89
2022-10-11T23:33:37.837Z,15.90
2022-10-11T23:36:06.852Z,15.90
2022-10-11T23:38:34.797Z,15.91
2022-10-11T23:41:02.717Z,15.92
2022-10-11T23:43:30.704Z,15.91
2022-10-11T23:45:58.708Z,15.90
2022-10-11T23:48:28.471Z,15.90
2022-10-11T23:50:56.416Z,15.89
2022-10-11T23:53:24.381Z,15.92
2022-10-11T23:55:52.362Z,15.90
2022-10-11T23:58:20.492Z,15.86
